createdAt,value
2022-12-23T00:01:00.076Z,73.49
2022-12-23T00:03:29.234Z,74.33
2022-12-23T00:05:57.314Z,75.17
2022-12-23T00:08:25.720Z,75.11
2022-12-23T00:10:57.576Z,75.29
2022-12-23T00:13:42.654Z,75.37
2022-12-23T00:16:12.202Z,75.27
2022-12-23T00:18:40.866Z,75.45
2022-12-23T00:21:11.272Z,75.75
2022-12-23T00:23:40.724Z,75.49
2022-12-23T00:26:15.454Z,76.41
2022-12-23T00:28:43.118Z,76.34
2022-12-23T00:31:13.684Z,76.65
2022-12-23T00:33:43.221Z,77.18
2022-12-23T00:36:19.327Z,77.34
2022-12-23T00:39:04.813Z,77.86
2022-12-23T00:41:52.163Z,78.15
2022-12-23T00:44:19.947Z,78.75
2022-12-23T00:46:47.588Z,79.48
2022-12-23T00:49:34.239Z,79.86
2022-12-23T00:52:02.663Z,79.92
2022-12-23T00:54:31.915Z,79.44
2022-12-23T00:57:01.248Z,79.61
2022-12-23T00:59:28.943Z,79.61
2022-12-23T01:02:14.517Z,79.13
2022-12-23T01:04:59.634Z,78.62
2022-12-23T01:07:27.363Z,79.58
2022-12-23T01:09:55.078Z,79.83
2022-12-23T01:12:24.214Z,80.15
2022-12-23T01:14:51.867Z,80.13
2022-12-23T01:17:19.739Z,79.62
2022-12-23T01:19:47.549Z,79.11
2022-12-23T01:22:15.181Z,78.72
2022-12-23T01:24:42.926Z,78.33
2022-12-23T01:27:10.559Z,77.94
2022-12-23T01:29:39.575Z,78.25
2022-12-23T01:32:07.296Z,78.77
2022-12-23T01:34:37.519Z,79.14
2022-12-23T01:37:05.797Z,79.33
2022-12-23T01:39:33.538Z,79.58
2022-12-23T01:42:18.643Z,79.92
2022-12-23T01:44:59.956Z,80.38
2022-12-23T01:47:33.183Z,81.02
2022-12-23T01:50:06.197Z,80.77
2022-12-23T01:52:37.009Z,80.71
2022-12-23T01:55:05.031Z,80.65
2022-12-23T01:57:32.988Z,80.43
2022-12-23T02:00:31.193Z,80.41
2022-12-23T02:03:16.524Z,80.42
2022-12-23T02:05:45.955Z,80.67
2022-12-23T02:08:33.147Z,81.10
2022-12-23T02:11:26.419Z,80.94
2022-12-23T02:14:22.600Z,81.35
2022-12-23T02:17:00.375Z,81.68
2022-12-23T02:19:53.817Z,82.18
2022-12-23T02:22:43.651Z,82.54
2022-12-23T02:25:43.923Z,82.39
2022-12-23T02:28:41.438Z,82.32
2022-12-23T02:31:21.202Z,82.55
2022-12-23T02:33:58.095Z,82.60
2022-12-23T02:36:38.816Z,82.26
2022-12-23T02:39:10.883Z,82.31
2022-12-23T02:41:48.213Z,82.26
2022-12-23T02:44:28.219Z,82.10
2022-12-23T02:47:05.014Z,82.31
2022-12-23T02:49:36.508Z,82.59
2022-12-23T02:52:08.450Z,82.92
2022-12-23T02:54:41.946Z,83.31
2022-12-23T02:57:12.586Z,83.33
2022-12-23T02:59:44.911Z,83.37
2022-12-23T03:02:14.545Z,82.92
2022-12-23T03:04:42.657Z,83.55
2022-12-23T03:07:18.600Z,83.77
2022-12-23T03:09:58.330Z,84.19
2022-12-23T03:12:37.066Z,84.62
2022-12-23T03:15:25.820Z,85.04
2022-12-23T03:18:03.698Z,85.09
2022-12-23T03:20:38.897Z,85.13
2022-12-23T03:23:14.253Z,85.12
2022-12-23T03:25:47.585Z,85.26
2022-12-23T03:28:21.167Z,85.07
2022-12-23T03:30:53.784Z,85.14
2022-12-23T03:33:27.038Z,84.94
2022-12-23T03:35:59.239Z,84.73
2022-12-23T03:38:28.564Z,84.55
2022-12-23T03:40:59.777Z,84.56
2022-12-23T03:43:31.792Z,84.34
2022-12-23T03:46:02.103Z,84.11
2022-12-23T03:48:35.569Z,83.99
2022-12-23T03:51:06.773Z,83.65
2022-12-23T03:53:39.243Z,83.71
2022-12-23T03:56:11.545Z,83.59
2022-12-23T03:58:43.421Z,83.33
2022-12-23T04:01:26.695Z,83.76
2022-12-23T04:04:01.461Z,83.78
2022-12-23T04:06:35.379Z,83.83
2022-12-23T04:09:04.100Z,83.93
2022-12-23T04:11:32.051Z,83.78
2022-12-23T04:13:59.743Z,83.87
2022-12-23T04:16:28.393Z,83.80
2022-12-23T04:18:57.407Z,84.08
2022-12-23T04:21:25.042Z,84.31
2022-12-23T04:23:52.751Z,84.99
2022-12-23T04:26:20.445Z,85.69
2022-12-23T04:28:48.133Z,85.75
2022-12-23T04:31:15.788Z,85.70
2022-12-23T04:33:43.523Z,85.43
2022-12-23T04:36:12.531Z,85.50
2022-12-23T04:38:40.160Z,85.18
2022-12-23T04:41:07.858Z,85.09
2022-12-23T04:43:35.889Z,85.21
2022-12-23T04:46:03.577Z,85.01
2022-12-23T04:48:31.239Z,84.99
2022-12-23T04:50:58.909Z,84.92
2022-12-23T04:53:27.921Z,84.60
2022-12-23T04:55:55.556Z,84.48
2022-12-23T04:58:25.065Z,84.25
2022-12-23T05:01:02.632Z,84.42
2022-12-23T05:03:30.365Z,84.26
2022-12-23T05:05:58.298Z,84.32
2022-12-23T05:08:26.055Z,83.97
2022-12-23T05:10:55.253Z,83.96
2022-12-23T05:13:23.225Z,83.78
2022-12-23T05:15:52.699Z,83.67
2022-12-23T05:18:21.580Z,83.29
2022-12-23T05:20:50.214Z,83.56
2022-12-23T05:23:18.068Z,83.67
2022-12-23T05:25:52.161Z,84.70
2022-12-23T05:28:21.675Z,85.09
2022-12-23T05:30:49.821Z,85.46
2022-12-23T05:33:17.556Z,85.62
2022-12-23T05:35:45.348Z,85.64
2022-12-23T05:38:12.985Z,85.77
2022-12-23T05:40:40.618Z,85.40
2022-12-23T05:43:08.507Z,85.65
2022-12-23T05:45:37.665Z,85.24
2022-12-23T05:48:05.376Z,84.78
2022-12-23T05:50:33.224Z,84.71
2022-12-23T05:53:00.867Z,84.60
2022-12-23T05:55:28.639Z,84.70
2022-12-23T05:57:56.314Z,84.41
2022-12-23T06:00:24.252Z,84.08
2022-12-23T06:02:54.266Z,84.07
2022-12-23T06:05:22.709Z,83.85
2022-12-23T06:07:50.370Z,83.90
2022-12-23T06:10:18.152Z,83.96
2022-12-23T06:12:45.828Z,83.84
2022-12-23T06:15:13.690Z,83.25
2022-12-23T06:17:41.351Z,83.50
2022-12-23T06:20:18.100Z,83.00
2022-12-23T06:22:48.299Z,82.98
2022-12-23T06:25:16.199Z,83.13
2022-12-23T06:27:43.831Z,83.21
2022-12-23T06:30:12.163Z,83.02
2022-12-23T06:32:39.872Z,83.36
2022-12-23T06:35:08.070Z,83.32
2022-12-23T06:37:37.171Z,83.18
2022-12-23T06:40:05.723Z,83.19
2022-12-23T06:42:34.005Z,82.73
2022-12-23T06:45:01.835Z,82.69
2022-12-23T06:47:29.567Z,82.67
2022-12-23T06:49:57.258Z,82.75
2022-12-23T06:52:24.865Z,83.41
2022-12-23T06:54:53.983Z,83.02
2022-12-23T06:57:21.783Z,81.98
2022-12-23T06:59:49.711Z,81.59
2022-12-23T07:02:17.498Z,82.18
2022-12-23T07:04:45.188Z,82.51
2022-12-23T07:07:13.224Z,82.66
2022-12-23T07:09:40.830Z,82.46
2022-12-23T07:12:09.922Z,82.78
2022-12-23T07:14:37.571Z,82.68
2022-12-23T07:17:05.228Z,83.50
2022-12-23T07:19:32.825Z,83.95
2022-12-23T07:22:00.475Z,83.37
2022-12-23T07:24:28.087Z,83.88
2022-12-23T07:26:56.004Z,83.71
2022-12-23T07:29:25.019Z,83.49
2022-12-23T07:31:53.065Z,83.68
2022-12-23T07:34:20.859Z,83.45
2022-12-23T07:36:48.591Z,83.28
2022-12-23T07:39:16.259Z,83.55
2022-12-23T07:41:43.985Z,83.35
2022-12-23T07:44:11.633Z,83.15
2022-12-23T07:46:40.917Z,83.62
2022-12-23T07:49:09.510Z,83.69
2022-12-23T07:51:37.088Z,84.38
2022-12-23T07:54:05.143Z,84.36
2022-12-23T07:56:32.754Z,84.15
2022-12-23T07:59:00.352Z,84.74
2022-12-23T08:01:28.094Z,84.65
2022-12-23T08:03:57.259Z,84.64
2022-12-23T08:06:24.948Z,84.52
2022-12-23T08:08:52.555Z,84.33
2022-12-23T08:11:20.251Z,84.60
2022-12-23T08:13:49.200Z,84.73
2022-12-23T08:16:16.892Z,84.72
2022-12-23T08:18:44.523Z,84.73
2022-12-23T08:21:15.752Z,84.95
2022-12-23T08:23:43.977Z,85.00
2022-12-23T08:26:13.337Z,84.91
2022-12-23T08:28:42.471Z,85.32
2022-12-23T08:31:11.909Z,85.29
2022-12-23T08:33:41.109Z,85.52
2022-12-23T08:36:11.559Z,85.32
2022-12-23T08:38:40.631Z,85.16
2022-12-23T08:41:10.660Z,85.29
2022-12-23T08:43:38.409Z,85.06
2022-12-23T08:46:07.347Z,85.38
2022-12-23T08:48:36.249Z,85.06
2022-12-23T08:51:05.703Z,85.31
2022-12-23T08:53:34.002Z,85.47
2022-12-23T08:56:05.784Z,85.57
2022-12-23T08:58:36.749Z,85.34
2022-12-23T09:01:05.481Z,85.14
2022-12-23T09:03:33.589Z,85.22
2022-12-23T09:06:05.828Z,84.92
2022-12-23T09:08:33.692Z,85.04
2022-12-23T09:11:01.658Z,85.27
2022-12-23T09:13:35.577Z,85.69
2022-12-23T09:16:03.971Z,86.36
2022-12-23T09:18:32.094Z,85.84
2022-12-23T09:21:00.768Z,85.81
2022-12-23T09:23:29.081Z,86.61
2022-12-23T09:25:57.169Z,86.74
2022-12-23T09:28:25.948Z,86.56
2022-12-23T09:30:54.977Z,86.40
2022-12-23T09:33:22.695Z,86.15
2022-12-23T09:35:50.485Z,86.58
2022-12-23T09:38:18.062Z,86.78
2022-12-23T09:40:45.793Z,86.68
2022-12-23T09:43:25.657Z,86.50
2022-12-23T09:46:05.297Z,86.68
2022-12-23T09:48:36.523Z,86.59
2022-12-23T09:51:05.835Z,86.41
2022-12-23T09:53:45.411Z,86.45
2022-12-23T09:56:19.450Z,86.26
2022-12-23T09:58:55.441Z,86.51
2022-12-23T10:01:32.682Z,86.72
2022-12-23T10:04:31.254Z,86.23
2022-12-23T10:07:16.940Z,86.19
2022-12-23T10:09:47.420Z,86.21
2022-12-23T10:12:27.280Z,86.29
2022-12-23T10:14:59.675Z,86.03
2022-12-23T10:17:33.432Z,86.17
2022-12-23T10:20:04.720Z,86.10
2022-12-23T10:22:38.528Z,86.03
2022-12-23T10:25:17.206Z,86.18
2022-12-23T10:27:45.819Z,86.38
2022-12-23T10:30:42.520Z,86.12
2022-12-23T10:33:09.569Z,85.86
2022-12-23T10:35:45.546Z,85.83
2022-12-23T10:38:25.815Z,86.33
2022-12-23T10:41:03.878Z,86.39
2022-12-23T10:43:49.531Z,86.21
2022-12-23T10:46:26.254Z,86.13
2022-12-23T10:49:04.598Z,86.03
2022-12-23T10:51:39.570Z,86.13
2022-12-23T10:54:14.012Z,87.14
2022-12-23T10:56:41.802Z,87.61
2022-12-23T10:59:15.007Z,88.76
2022-12-23T11:01:48.170Z,88.94
2022-12-23T11:04:21.219Z,89.47
2022-12-23T11:07:18.282Z,89.05
2022-12-23T11:09:43.052Z,89.42
2022-12-23T11:12:12.587Z,89.54
2022-12-23T11:14:42.585Z,89.35
2022-12-23T11:17:21.053Z,88.89
2022-12-23T11:19:57.087Z,88.64
2022-12-23T11:22:26.568Z,88.52
2022-12-23T11:24:54.212Z,88.69
2022-12-23T11:27:21.850Z,88.25
2022-12-23T11:29:52.511Z,87.97
2022-12-23T11:32:23.361Z,88.09
2022-12-23T11:34:53.473Z,87.85
2022-12-23T11:37:35.817Z,87.46
2022-12-23T11:40:05.429Z,87.34
2022-12-23T11:42:35.496Z,86.87
2022-12-23T11:45:08.462Z,86.61
2022-12-23T11:47:40.941Z,86.49
2022-12-23T11:50:28.713Z,86.63
2022-12-23T11:53:02.298Z,86.37
2022-12-23T11:55:33.734Z,86.26
2022-12-23T11:58:02.847Z,86.31
2022-12-23T12:00:36.477Z,85.66
2022-12-23T12:03:05.804Z,85.84
2022-12-23T12:05:37.376Z,85.85
2022-12-23T12:08:07.718Z,85.72
2022-12-23T12:10:37.669Z,85.47
2022-12-23T12:13:07.892Z,85.32
2022-12-23T12:15:45.683Z,85.13
2022-12-23T12:18:16.940Z,84.80
2022-12-23T12:20:48.158Z,85.06
2022-12-23T12:23:19.549Z,84.75
2022-12-23T12:25:51.623Z,84.56
2022-12-23T12:28:24.456Z,84.32
2022-12-23T12:30:57.827Z,84.45
2022-12-23T12:33:33.468Z,84.40
2022-12-23T12:36:12.542Z,84.20
2022-12-23T12:38:41.149Z,83.81
2022-12-23T12:41:17.305Z,83.85
2022-12-23T12:43:51.973Z,83.97
2022-12-23T12:46:28.341Z,84.21
2022-12-23T12:49:00.281Z,84.74
2022-12-23T12:51:32.911Z,84.93
2022-12-23T12:54:07.129Z,85.72
2022-12-23T12:56:42.009Z,85.72
2022-12-23T12:59:17.491Z,85.88
2022-12-23T13:01:53.900Z,86.10
2022-12-23T13:04:49.830Z,86.73
2022-12-23T13:07:28.872Z,87.15
2022-12-23T13:10:02.139Z,87.94
2022-12-23T13:12:40.897Z,88.26
2022-12-23T13:15:19.743Z,88.12
2022-12-23T13:18:01.927Z,87.96
2022-12-23T13:20:37.558Z,88.20
2022-12-23T13:23:41.748Z,88.62
2022-12-23T13:26:05.995Z,88.23
2022-12-23T13:28:42.289Z,87.46
2022-12-23T13:31:18.263Z,87.52
2022-12-23T13:33:54.591Z,87.58
2022-12-23T13:36:38.516Z,87.78
2022-12-23T13:39:23.880Z,88.05
2022-12-23T13:41:58.578Z,88.30
2022-12-23T13:44:31.467Z,88.51
2022-12-23T13:47:08.876Z,88.39
2022-12-23T13:49:52.940Z,88.46
2022-12-23T13:52:29.881Z,88.65
2022-12-23T13:55:13.128Z,88.23
2022-12-23T13:57:49.971Z,88.02
2022-12-23T14:00:27.837Z,88.34
2022-12-23T14:03:17.850Z,88.50
2022-12-23T14:05:46.988Z,88.83
2022-12-23T14:08:24.871Z,89.02
2022-12-23T14:10:55.901Z,88.74
2022-12-23T14:13:26.354Z,88.63
2022-12-23T14:16:25.642Z,88.12
2022-12-23T14:19:21.356Z,88.33
2022-12-23T14:21:59.019Z,88.72
2022-12-23T14:25:10.468Z,88.42
2022-12-23T14:27:51.388Z,88.54
2022-12-23T14:30:24.349Z,88.70
2022-12-23T14:32:53.659Z,89.27
2022-12-23T14:35:27.664Z,89.56
2022-12-23T14:38:29.523Z,89.71
2022-12-23T14:41:23.856Z,89.61
2022-12-23T14:43:58.057Z,89.49
2022-12-23T14:46:57.477Z,89.28
2022-12-23T14:49:39.717Z,89.26
2022-12-23T14:52:46.469Z,89.25
2022-12-23T14:55:46.130Z,88.98
2022-12-23T14:58:32.244Z,89.22
2022-12-23T15:01:05.649Z,88.98
2022-12-23T15:03:41.169Z,88.89
2022-12-23T15:06:08.845Z,89.14
2022-12-23T15:08:40.034Z,89.24
2022-12-23T15:14:39.321Z,89.40
2022-12-23T15:17:19.527Z,89.30
2022-12-23T15:19:48.091Z,89.04
2022-12-23T15:22:22.732Z,88.40
2022-12-23T15:24:53.248Z,88.38
2022-12-23T15:27:30.242Z,88.41
2022-12-23T15:29:58.640Z,88.94
2022-12-23T15:32:29.474Z,88.90
2022-12-23T15:35:03.567Z,88.85
2022-12-23T15:37:32.672Z,88.91
2022-12-23T15:40:11.537Z,88.60
2022-12-23T15:42:40.619Z,88.88
2022-12-23T15:45:34.915Z,88.34
2022-12-23T15:48:05.490Z,88.70
2022-12-23T15:50:40.547Z,88.26
2022-12-23T15:53:11.064Z,88.19
2022-12-23T15:55:41.709Z,87.80
2022-12-23T15:58:16.479Z,87.59
2022-12-23T16:00:52.794Z,87.61
2022-12-23T16:03:28.087Z,87.81
2022-12-23T16:05:56.059Z,87.85
2022-12-23T16:53:31.233Z,88.96
2022-12-23T16:56:01.273Z,89.19
2022-12-23T16:58:29.464Z,88.75
2022-12-23T17:00:57.428Z,88.44
2022-12-23T17:03:25.058Z,88.81
2022-12-23T17:05:53.064Z,88.72
2022-12-23T17:08:20.724Z,88.58
2022-12-23T17:10:48.385Z,88.35
2022-12-23T17:13:19.508Z,88.11
2022-12-23T17:15:47.165Z,87.93
2022-12-23T17:18:16.806Z,88.07
2022-12-23T17:20:45.864Z,87.78
2022-12-23T17:23:26.598Z,88.24
2022-12-23T17:25:54.485Z,87.72
2022-12-23T17:28:23.827Z,87.83
2022-12-23T17:30:55.706Z,87.50
2022-12-23T17:33:27.807Z,87.57
2022-12-23T17:35:55.968Z,87.41
2022-12-23T17:38:23.804Z,87.07
2022-12-23T17:40:51.677Z,87.08
2022-12-23T17:43:19.996Z,87.19
2022-12-23T17:45:49.020Z,87.32
2022-12-23T17:48:22.164Z,87.92
2022-12-23T17:50:50.958Z,88.19
2022-12-23T17:53:20.193Z,88.64
2022-12-23T17:55:47.970Z,88.43
2022-12-23T17:58:16.207Z,87.98
2022-12-23T18:00:43.894Z,87.92
2022-12-23T18:03:23.154Z,87.57
2022-12-23T18:05:57.245Z,87.09
2022-12-23T18:08:28.753Z,86.90
2022-12-23T18:10:56.616Z,86.86
2022-12-23T18:13:24.273Z,86.64
2022-12-23T18:15:52.603Z,87.11
2022-12-23T18:18:33.051Z,86.65
2022-12-23T18:21:06.313Z,86.44
2022-12-23T18:23:37.155Z,86.14
2022-12-23T18:26:05.439Z,86.39
2022-12-23T18:28:33.120Z,86.43
2022-12-23T18:31:00.785Z,86.45
2022-12-23T18:33:30.292Z,86.17
2022-12-23T18:35:58.389Z,86.33
2022-12-23T18:38:26.116Z,85.81
2022-12-23T18:40:54.857Z,85.58
2022-12-23T18:43:24.739Z,85.87
2022-12-23T18:45:54.098Z,85.56
2022-12-23T18:48:22.077Z,85.38
2022-12-23T18:50:52.204Z,85.03
2022-12-23T18:53:25.099Z,84.91
2022-12-23T18:55:54.174Z,85.12
2022-12-23T18:58:22.586Z,85.06
2022-12-23T19:00:52.532Z,84.74
2022-12-23T19:03:24.835Z,84.63
2022-12-23T19:05:55.305Z,84.46
2022-12-23T19:08:26.708Z,83.96
2022-12-23T19:10:56.009Z,83.88
2022-12-23T19:13:23.877Z,84.09
2022-12-23T19:15:51.898Z,84.10
2022-12-23T19:18:22.193Z,84.11
2022-12-23T19:20:50.435Z,83.90
2022-12-23T19:23:19.440Z,83.53
2022-12-23T19:25:54.379Z,83.12
2022-12-23T19:28:22.852Z,83.69
2022-12-23T19:30:50.806Z,83.36
2022-12-23T19:33:18.507Z,83.66
2022-12-23T19:35:46.136Z,83.08
2022-12-23T19:38:13.775Z,83.20
2022-12-23T19:40:42.783Z,82.79
2022-12-23T19:43:11.321Z,83.15
2022-12-23T19:45:39.013Z,83.12
2022-12-23T19:48:07.021Z,82.96
2022-12-23T19:50:34.651Z,82.77
2022-12-23T19:53:02.295Z,82.66
2022-12-23T19:55:30.290Z,82.40
2022-12-23T19:57:59.298Z,82.16
2022-12-23T20:00:26.922Z,82.05
2022-12-23T20:02:58.660Z,82.10
2022-12-23T20:05:26.901Z,81.95
2022-12-23T20:07:54.497Z,81.73
2022-12-23T20:10:22.093Z,81.57
2022-12-23T20:12:50.098Z,81.28
2022-12-23T20:15:19.217Z,81.25
2022-12-23T20:17:46.874Z,81.46
2022-12-23T20:20:14.697Z,81.33
2022-12-23T20:22:42.304Z,81.46
2022-12-23T20:25:10.298Z,81.26
2022-12-23T20:27:38.710Z,81.36
2022-12-23T20:30:07.626Z,81.01
2022-12-23T20:32:36.559Z,81.03
2022-12-23T20:35:04.468Z,80.96
2022-12-23T20:37:32.080Z,80.73
2022-12-23T20:39:59.736Z,81.31
2022-12-23T20:42:28.012Z,80.96
2022-12-23T20:44:55.690Z,81.33
2022-12-23T20:47:23.384Z,81.82
2022-12-23T20:49:52.454Z,82.19
2022-12-23T20:52:20.064Z,83.14
2022-12-23T20:54:47.709Z,83.85
2022-12-23T20:57:15.375Z,84.41
2022-12-23T20:59:43.005Z,85.15
2022-12-23T21:02:13.021Z,85.95
2022-12-23T21:04:40.818Z,86.94
2022-12-23T21:07:10.052Z,87.35
2022-12-23T21:09:37.878Z,87.93
2022-12-23T21:12:05.836Z,87.82
2022-12-23T21:14:33.728Z,87.35
2022-12-23T21:17:01.305Z,87.89
2022-12-23T21:19:29.087Z,87.94
2022-12-23T21:21:58.389Z,88.60
2022-12-23T21:24:27.693Z,89.39
2022-12-23T21:26:56.833Z,89.81
2022-12-23T21:29:25.467Z,88.60
2022-12-23T21:31:53.198Z,87.56
2022-12-23T21:34:20.979Z,87.73
2022-12-23T21:36:48.992Z,87.59
2022-12-23T21:39:17.659Z,86.79
2022-12-23T21:41:49.105Z,86.84
2022-12-23T21:44:16.777Z,86.81
2022-12-23T21:46:44.473Z,86.90
2022-12-23T21:49:12.354Z,87.58
2022-12-23T21:51:41.528Z,87.82
2022-12-23T21:54:10.851Z,88.41
2022-12-23T21:56:39.685Z,88.76
2022-12-23T21:59:11.339Z,88.91
2022-12-23T22:01:39.061Z,88.63
2022-12-23T22:04:07.401Z,88.44
2022-12-23T22:06:37.675Z,87.40
2022-12-23T22:09:06.842Z,87.50
2022-12-23T22:11:36.368Z,87.20
2022-12-23T22:14:05.516Z,87.44
2022-12-23T22:16:35.449Z,87.30
2022-12-23T22:19:04.791Z,87.18
2022-12-23T22:21:33.682Z,87.29
2022-12-23T22:24:01.616Z,87.46
2022-12-23T22:26:31.079Z,87.41
2022-12-23T22:29:00.935Z,87.40
2022-12-23T22:31:32.769Z,87.20
2022-12-23T22:34:02.221Z,86.92
2022-12-23T22:36:29.939Z,87.10
2022-12-23T22:38:59.396Z,87.69
2022-12-23T22:41:29.282Z,88.15
2022-12-23T22:43:57.643Z,88.69
2022-12-23T22:46:26.116Z,88.82
2022-12-23T22:48:54.601Z,89.12
2022-12-23T22:51:26.123Z,89.14
2022-12-23T22:53:54.393Z,89.17
2022-12-23T22:56:23.531Z,89.10
2022-12-23T22:58:51.994Z,89.27
2022-12-23T23:01:22.913Z,89.53
2022-12-23T23:04:01.235Z,89.47
2022-12-23T23:06:32.135Z,90.08
2022-12-23T23:09:00.062Z,90.26
2022-12-23T23:11:29.188Z,90.11
2022-12-23T23:13:57.788Z,90.33
2022-12-23T23:16:26.401Z,85.94
2022-12-23T23:18:54.985Z,84.12
2022-12-23T23:21:22.780Z,84.69
2022-12-23T23:23:51.789Z,85.21
2022-12-23T23:26:20.154Z,85.02
2022-12-23T23:28:48.633Z,85.18
2022-12-23T23:31:41.163Z,85.06
2022-12-23T23:34:03.910Z,84.85
2022-12-23T23:36:31.889Z,84.16
2022-12-23T23:39:00.862Z,83.97
2022-12-23T23:41:28.470Z,83.29
2022-12-23T23:43:56.109Z,83.14
2022-12-23T23:46:24.141Z,82.61
2022-12-23T23:48:51.896Z,81.88
2022-12-23T23:51:19.550Z,81.24
2022-12-23T23:53:47.233Z,80.65
2022-12-23T23:56:21.951Z,80.69
2022-12-23T23:58:52.579Z,80.31
